Time;durP1;ratioP1;P1;durP2;ratioP2;P2;SDS_P1;SDS_P2;PMS_P1;PMS_P2;Temp;Humidity;BMP_temperature;BMP_pressure;BME280_temperature;BME280_humidity;BME280_pressure;Samples;Min_cycle;Max_cycle;Signal;HPM_P1;HPM_P2
2023/05/31 00:00:07;;;;;;;11.10;7.72;;;;;;;;;;2047687;29;20093;-90
2023/05/31 00:01:08;;;;;;;9.88;7.30;;;;;;;;;;2047655;29;20035;-90
2023/05/31 00:02:11;;;;;;;10.20;6.88;;;;;;;;;;1791754;29;10001148;-90
2023/05/31 00:03:12;;;;;;;10.90;7.78;;;;;;;;;;2047547;29;20291;-91
2023/05/31 00:04:12;;;;;;;11.02;7.60;;;;;;;;;;2047702;29;20031;-91
2023/05/31 00:05:13;;;;;;;8.48;6.95;;;;;;;;;;2047727;29;20032;-90
2023/05/31 00:06:13;;;;;;;10.55;7.68;;;;;;;;;;2047629;29;20023;-91
2023/05/31 00:07:15;;;;;;;13.85;7.53;;;;;;;;;;2047725;29;20479;-90
2023/05/31 00:08:15;;;;;;;13.65;7.53;;;;;;;;;;2039711;29;20027;-90
2023/05/31 00:09:16;;;;;;;8.80;6.97;;;;;;;;;;2047695;29;20159;-91
2023/05/31 00:10:16;;;;;;;9.10;7.40;;;;;;;;;;2048182;28;20034;-90
2023/05/31 00:11:17;;;;;;;10.15;7.22;;;;;;;;;;2049796;29;20031;-90
2023/05/31 00:12:17;;;;;;;11.05;7.80;;;;;;;;;;2048028;29;20059;-91
2023/05/31 00:13:19;;;;;;;9.55;7.10;;;;;;;;;;2051306;28;20030;-90
2023/05/31 00:14:20;;;;;;;10.05;7.18;;;;;;;;;;2047586;29;20102;-90
2023/05/31 00:15:20;;;;;;;8.18;6.65;;;;;;;;;;2039332;29;20075;-90
2023/05/31 00:16:21;;;;;;;11.23;8.10;;;;;;;;;;2039469;29;20161;-90
2023/05/31 00:17:21;;;;;;;13.63;8.18;;;;;;;;;;2039427;29;20483;-91
2023/05/31 00:18:21;;;;;;;12.82;7.50;;;;;;;;;;2039626;29;20073;-90
2023/05/31 00:19:22;;;;;;;9.82;7.40;;;;;;;;;;2047189;29;20117;-90
2023/05/31 00:20:23;;;;;;;12.02;7.68;;;;;;;;;;2047397;29;20126;-91
2023/05/31 00:21:24;;;;;;;10.68;7.70;;;;;;;;;;2047230;29;20461;-89
2023/05/31 00:22:27;;;;;;;11.30;7.18;;;;;;;;;;2039423;29;20091;-90
2023/05/31 00:23:27;;;;;;;8.90;7.70;;;;;;;;;;2047764;29;20023;-91
2023/05/31 00:24:28;;;;;;;9.40;7.22;;;;;;;;;;2048006;28;20036;-90
2023/05/31 00:25:28;;;;;;;11.45;7.55;;;;;;;;;;2049670;29;20023;-90
2023/05/31 00:26:29;;;;;;;8.63;6.88;;;;;;;;;;2048874;29;20487;-90
2023/05/31 00:27:29;;;;;;;10.63;7.35;;;;;;;;;;2048731;29;20388;-90
2023/05/31 00:28:30;;;;;;;9.63;7.93;;;;;;;;;;2048811;29;20506;-90
2023/05/31 00:29:30;;;;;;;10.10;7.18;;;;;;;;;;2048588;29;20015;-90
2023/05/31 00:30:30;;;;;;;12.32;7.90;;;;;;;;;;2048390;29;20027;-89
2023/05/31 00:31:31;;;;;;;11.95;8.50;;;;;;;;;;2048830;29;20023;-89
2023/05/31 00:32:31;;;;;;;9.93;7.45;;;;;;;;;;2048802;29;20058;-90
2023/05/31 00:33:32;;;;;;;15.43;7.65;;;;;;;;;;2049623;29;20019;-90
2023/05/31 00:34:32;;;;;;;10.43;7.65;;;;;;;;;;2048897;29;20471;-90
2023/05/31 00:35:33;;;;;;;12.98;7.47;;;;;;;;;;2048763;29;20023;-90
2023/05/31 00:36:33;;;;;;;12.13;7.13;;;;;;;;;;1701209;28;10008585;-90
2023/05/31 00:37:37;;;;;;;14.07;7.38;;;;;;;;;;2048482;29;20270;-90
2023/05/31 00:38:37;;;;;;;11.48;7.30;;;;;;;;;;2041050;29;20034;-90
2023/05/31 00:39:38;;;;;;;11.55;8.15;;;;;;;;;;2040829;29;20028;-90
2023/05/31 00:40:39;;;;;;;9.55;7.28;;;;;;;;;;2040734;29;20476;-90
2023/05/31 00:41:39;;;;;;;8.51;6.93;;;;;;;;;;1703934;29;10092900;-90
2023/05/31 00:42:39;;;;;;;13.38;7.32;;;;;;;;;;2048676;29;20333;-90
2023/05/31 00:43:40;;;;;;;10.95;7.15;;;;;;;;;;2040611;29;20114;-91
2023/05/31 00:44:41;;;;;;;9.82;7.18;;;;;;;;;;2040580;29;20091;-90
2023/05/31 00:45:41;;;;;;;11.48;7.47;;;;;;;;;;2040731;29;20151;-90
2023/05/31 00:46:42;;;;;;;10.18;7.65;;;;;;;;;;2040806;29;20016;-89
2023/05/31 00:47:42;;;;;;;9.82;6.88;;;;;;;;;;2048723;29;20068;-90
2023/05/31 00:48:43;;;;;;;11.23;7.82;;;;;;;;;;2049189;28;20030;-90
2023/05/31 00:49:43;;;;;;;10.38;7.53;;;;;;;;;;2049324;29;20027;-90
2023/05/31 00:50:44;;;;;;;11.55;8.10;;;;;;;;;;2049299;29;20034;-90
2023/05/31 00:51:45;;;;;;;10.32;8.00;;;;;;;;;;2051700;29;20035;-89
2023/05/31 00:52:48;;;;;;;10.68;6.93;;;;;;;;;;2052979;29;20023;-89
2023/05/31 00:54:02;;;;;;;12.62;7.20;;;;;;;;;;236649;29;10001216;-91
2023/05/31 00:55:03;;;;;;;10.48;6.97;;;;;;;;;;1196417;28;10000971;-91
2023/05/31 00:56:04;;;;;;;12.07;7.43;;;;;;;;;;2055887;28;20019;-90
2023/05/31 00:57:07;;;;;;;10.57;7.47;;;;;;;;;;1794049;28;10128377;-90
2023/05/31 00:58:08;;;;;;;13.18;6.90;;;;;;;;;;2056716;29;20276;-90
2023/05/31 00:59:08;;;;;;;10.43;7.43;;;;;;;;;;2054161;29;20027;-90
2023/05/31 01:00:12;;;;;;;10.48;7.90;;;;;;;;;;2049162;29;20035;-90
2023/05/31 01:01:13;;;;;;;15.93;8.48;;;;;;;;;;2049419;28;20081;-90
2023/05/31 01:02:17;;;;;;;11.50;7.47;;;;;;;;;;2052582;29;20031;-88
2023/05/31 01:03:20;;;;;;;11.55;7.80;;;;;;;;;;2050229;29;20489;-90
2023/05/31 01:04:21;;;;;;;9.65;7.75;;;;;;;;;;2049469;29;20023;-90
2023/05/31 01:05:21;;;;;;;12.55;7.97;;;;;;;;;;2048424;29;20672;-90
2023/05/31 01:06:23;;;;;;;11.77;7.68;;;;;;;;;;2049009;29;20035;-90
2023/05/31 01:07:24;;;;;;;11.90;7.82;;;;;;;;;;2048912;29;20509;-89
2023/05/31 01:08:25;;;;;;;10.43;7.50;;;;;;;;;;2048968;29;20024;-90
2023/05/31 01:09:26;;;;;;;12.45;7.20;;;;;;;;;;2041312;29;20403;-90
2023/05/31 01:10:29;;;;;;;10.73;6.97;;;;;;;;;;2044394;29;20019;-89
2023/05/31 01:11:42;;;;;;;8.13;7.25;;;;;;;;;;2052829;29;20023;-89
2023/05/31 01:13:07;;;;;;;10.23;7.30;;;;;;;;;;2058174;28;20078;-91
2023/05/31 01:14:19;;;;;;;9.68;7.22;;;;;;;;;;2059825;28;20015;-91
2023/05/31 01:15:24;;;;;;;9.70;6.70;;;;;;;;;;2058971;28;20050;-90
2023/05/31 01:16:33;;;;;;;8.57;6.60;;;;;;;;;;2057027;29;20026;-90
2023/05/31 01:18:11;;;;;;;9.70;7.25;;;;;;;;;;2054026;29;20027;-90
2023/05/31 01:19:20;;;;;;;11.07;6.95;;;;;;;;;;2048967;29;20533;-90
2023/05/31 01:20:24;;;;;;;12.05;7.22;;;;;;;;;;2048969;29;20329;-89
2023/05/31 01:21:32;;;;;;;9.23;7.18;;;;;;;;;;2042196;29;20024;-90
2023/05/31 01:22:50;;;;;;;9.50;7.60;;;;;;;;;;2048863;29;20030;-89
2023/05/31 01:24:08;;;;;;;8.57;6.85;;;;;;;;;;2048956;29;20023;-90
2023/05/31 01:25:31;;;;;;;10.27;7.13;;;;;;;;;;2048893;29;20032;-90
2023/05/31 01:26:45;;;;;;;9.75;7.10;;;;;;;;;;2048743;29;20033;-91
2023/05/31 01:27:46;;;;;;;11.32;7.03;;;;;;;;;;2042677;29;20101;-90
2023/05/31 01:28:51;;;;;;;9.35;7.68;;;;;;;;;;2048984;29;20165;-90
2023/05/31 01:29:53;;;;;;;10.48;6.75;;;;;;;;;;2048298;29;20023;-90
2023/05/31 01:31:00;;;;;;;11.18;6.93;;;;;;;;;;2048231;29;20027;-90
2023/05/31 01:32:01;;;;;;;11.20;7.18;;;;;;;;;;2048956;29;20118;-89
2023/05/31 01:33:03;;;;;;;10.20;7.22;;;;;;;;;;2048069;29;20039;-90
2023/05/31 01:34:04;;;;;;;8.95;6.95;;;;;;;;;;2040274;29;20027;-90
2023/05/31 01:35:05;;;;;;;11.85;7.30;;;;;;;;;;2048159;29;20038;-90
2023/05/31 01:36:05;;;;;;;13.32;7.22;;;;;;;;;;2047289;28;20034;-90
2023/05/31 01:37:06;;;;;;;10.50;6.72;;;;;;;;;;2039918;29;20095;-90
2023/05/31 01:38:06;;;;;;;9.60;6.68;;;;;;;;;;2040184;29;20027;-90
2023/05/31 01:39:07;;;;;;;13.15;7.47;;;;;;;;;;2048126;29;20042;-91
2023/05/31 01:40:09;;;;;;;11.27;6.47;;;;;;;;;;2048213;29;20170;-91
2023/05/31 01:41:13;;;;;;;10.27;6.70;;;;;;;;;;2040366;29;20507;-91
2023/05/31 01:42:13;;;;;;;12.88;7.05;;;;;;;;;;2048082;29;20502;-91
2023/05/31 01:43:14;;;;;;;11.05;7.45;;;;;;;;;;2049028;29;20031;-91
2023/05/31 01:44:18;;;;;;;11.38;7.03;;;;;;;;;;2048052;29;20015;-91
2023/05/31 01:45:19;;;;;;;12.63;7.32;;;;;;;;;;2048081;29;20019;-90
2023/05/31 01:46:20;;;;;;;9.80;7.13;;;;;;;;;;2048101;29;20050;-90
2023/05/31 01:47:22;;;;;;;9.70;6.55;;;;;;;;;;2048075;29;20034;-90
2023/05/31 01:48:24;;;;;;;13.65;7.70;;;;;;;;;;2048127;29;20027;-90
2023/05/31 01:49:25;;;;;;;11.45;6.70;;;;;;;;;;2047992;29;20492;-91
2023/05/31 01:50:26;;;;;;;10.55;6.93;;;;;;;;;;2040008;29;20091;-90
2023/05/31 01:51:32;;;;;;;9.15;6.80;;;;;;;;;;2048093;29;20344;-90
2023/05/31 01:52:34;;;;;;;11.20;6.75;;;;;;;;;;2048355;29;20023;-90
2023/05/31 01:53:35;;;;;;;10.13;7.30;;;;;;;;;;2046078;29;20038;-92
2023/05/31 01:54:36;;;;;;;8.70;7.32;;;;;;;;;;2048027;29;20030;-90
2023/05/31 01:55:36;;;;;;;15.63;7.15;;;;;;;;;;2048777;29;20106;-91
2023/05/31 01:56:39;;;;;;;10.27;7.65;;;;;;;;;;2040859;29;20500;-90
2023/05/31 01:57:42;;;;;;;8.75;7.00;;;;;;;;;;2048068;29;20100;-90
2023/05/31 01:58:50;;;;;;;11.77;7.45;;;;;;;;;;1858437;29;10244146;-91
2023/05/31 01:59:52;;;;;;;10.13;6.72;;;;;;;;;;2040930;29;20237;-90
2023/05/31 02:00:53;;;;;;;9.23;6.72;;;;;;;;;;2040114;29;20471;-91
2023/05/31 02:01:55;;;;;;;12.07;6.80;;;;;;;;;;2047868;29;20139;-90
2023/05/31 02:02:56;;;;;;;8.38;7.03;;;;;;;;;;2048696;29;20027;-91
2023/05/31 02:03:56;;;;;;;9.75;6.75;;;;;;;;;;2047676;29;20042;-90
2023/05/31 02:05:08;;;;;;;9.18;6.53;;;;;;;;;;2039893;29;20087;-90
2023/05/31 02:06:12;;;;;;;9.80;6.88;;;;;;;;;;2048007;29;20031;-90
2023/05/31 02:07:13;;;;;;;10.18;6.70;;;;;;;;;;2048820;29;20070;-91
2023/05/31 02:08:13;;;;;;;11.10;7.03;;;;;;;;;;2048631;29;20027;-90
2023/05/31 02:09:14;;;;;;;9.45;7.18;;;;;;;;;;2047877;29;20471;-90
2023/05/31 02:10:15;;;;;;;8.85;6.20;;;;;;;;;;2047943;29;20080;-91
2023/05/31 02:11:15;;;;;;;11.63;6.80;;;;;;;;;;2048129;29;20059;-91
2023/05/31 02:12:16;;;;;;;9.90;6.88;;;;;;;;;;2047934;29;20110;-91
2023/05/31 02:13:18;;;;;;;11.90;6.80;;;;;;;;;;2040179;29;20039;-91
2023/05/31 02:14:18;;;;;;;9.38;6.60;;;;;;;;;;2047960;29;20098;-90
2023/05/31 02:15:19;;;;;;;10.05;6.78;;;;;;;;;;2048640;29;20117;-91
2023/05/31 02:16:19;;;;;;;10.73;6.43;;;;;;;;;;2048441;29;20019;-90
2023/05/31 02:17:23;;;;;;;9.50;6.53;;;;;;;;;;2047948;29;20560;-90
2023/05/31 02:18:26;;;;;;;10.68;6.38;;;;;;;;;;2040161;29;20193;-90
2023/05/31 02:19:28;;;;;;;12.70;6.70;;;;;;;;;;1700963;29;10150024;-90
2023/05/31 02:20:29;;;;;;;11.02;6.50;;;;;;;;;;2047686;29;20102;-89
2023/05/31 02:21:33;;;;;;;10.90;6.65;;;;;;;;;;2048460;29;20015;-90
2023/05/31 02:22:34;;;;;;;10.02;6.72;;;;;;;;;;2048493;29;20030;-89
2023/05/31 02:23:34;;;;;;;10.80;6.65;;;;;;;;;;2047690;29;20023;-90
2023/05/31 02:24:37;;;;;;;13.15;6.88;;;;;;;;;;2047770;29;20075;-90
2023/05/31 02:25:37;;;;;;;9.10;7.10;;;;;;;;;;2048322;28;20019;-89
2023/05/31 02:26:37;;;;;;;8.10;6.95;;;;;;;;;;2047665;29;20019;-90
2023/05/31 02:27:39;;;;;;;11.85;7.03;;;;;;;;;;2039863;29;20127;-90
2023/05/31 02:28:40;;;;;;;9.07;7.10;;;;;;;;;;2039751;29;20083;-90
2023/05/31 02:29:40;;;;;;;9.50;7.10;;;;;;;;;;2047903;29;20408;-90
2023/05/31 02:30:41;;;;;;;9.63;6.80;;;;;;;;;;2047758;29;20027;-90
2023/05/31 02:31:42;;;;;;;10.65;7.05;;;;;;;;;;2047513;29;20019;-90
2023/05/31 02:32:42;;;;;;;10.90;6.40;;;;;;;;;;2039815;29;20456;-90
2023/05/31 02:33:43;;;;;;;8.55;6.90;;;;;;;;;;2039893;29;20053;-90
2023/05/31 02:34:43;;;;;;;10.68;6.55;;;;;;;;;;2048080;29;20145;-90
2023/05/31 02:35:44;;;;;;;10.32;6.78;;;;;;;;;;2047870;29;20015;-90
2023/05/31 02:36:44;;;;;;;11.93;6.85;;;;;;;;;;2048331;28;20035;-89
2023/05/31 02:37:46;;;;;;;10.95;6.72;;;;;;;;;;2048307;29;20039;-90
2023/05/31 02:38:49;;;;;;;10.32;6.82;;;;;;;;;;2047793;29;20090;-90
2023/05/31 02:39:49;;;;;;;10.77;6.72;;;;;;;;;;2047840;29;20032;-91
2023/05/31 02:40:50;;;;;;;7.85;6.85;;;;;;;;;;2047562;29;20458;-90
2023/05/31 02:41:50;;;;;;;10.82;7.22;;;;;;;;;;2039905;29;20134;-90
2023/05/31 02:42:51;;;;;;;9.93;6.38;;;;;;;;;;2047904;29;20039;-90
2023/05/31 02:43:52;;;;;;;12.45;7.47;;;;;;;;;;2041393;29;20032;-90
2023/05/31 02:44:52;;;;;;;14.52;8.02;;;;;;;;;;2042995;29;20039;-90
2023/05/31 02:45:53;;;;;;;7.75;6.70;;;;;;;;;;2040311;29;20102;-92
2023/05/31 02:46:53;;;;;;;11.45;7.20;;;;;;;;;;2047862;29;20042;-90
2023/05/31 02:47:53;;;;;;;10.45;6.63;;;;;;;;;;2047552;28;20117;-91
2023/05/31 02:48:54;;;;;;;12.13;6.57;;;;;;;;;;2039707;29;20035;-90
2023/05/31 02:50:11;;;;;;;8.80;7.20;;;;;;;;;;2047752;29;20434;-91
2023/05/31 02:51:11;;;;;;;9.70;6.80;;;;;;;;;;2047580;29;20082;-92
2023/05/31 02:52:11;;;;;;;10.95;6.95;;;;;;;;;;2040629;29;20095;-92
2023/05/31 02:53:12;;;;;;;9.95;6.65;;;;;;;;;;2047654;29;20031;-91
2023/05/31 02:54:12;;;;;;;9.07;6.88;;;;;;;;;;2048096;29;20468;-92
2023/05/31 02:55:13;;;;;;;12.20;7.38;;;;;;;;;;2047778;29;20118;-91
2023/05/31 02:56:15;;;;;;;9.73;6.97;;;;;;;;;;2047650;29;20031;-91
2023/05/31 02:57:15;;;;;;;10.68;6.55;;;;;;;;;;2048836;28;20035;-91
2023/05/31 02:58:16;;;;;;;8.30;6.30;;;;;;;;;;2048405;29;20424;-92
2023/05/31 02:59:16;;;;;;;8.35;6.43;;;;;;;;;;2049314;29;20054;-90
2023/05/31 03:00:18;;;;;;;11.65;7.03;;;;;;;;;;2053227;28;20487;-91
2023/05/31 03:01:18;;;;;;;12.90;6.55;;;;;;;;;;2052436;29;20155;-91
2023/05/31 03:02:18;;;;;;;11.63;7.07;;;;;;;;;;2041698;29;20048;-92
2023/05/31 03:03:19;;;;;;;10.45;6.65;;;;;;;;;;2039266;29;20038;-91
2023/05/31 03:04:19;;;;;;;8.80;6.70;;;;;;;;;;2047160;29;20483;-91
2023/05/31 03:05:20;;;;;;;8.80;6.43;;;;;;;;;;2047831;28;20114;-91
2023/05/31 03:06:21;;;;;;;8.15;6.07;;;;;;;;;;2047159;29;20445;-91
2023/05/31 03:07:21;;;;;;;11.43;6.78;;;;;;;;;;2039609;29;20579;-92
2023/05/31 03:08:22;;;;;;;8.18;6.25;;;;;;;;;;2038945;29;20027;-90
2023/05/31 03:09:22;;;;;;;10.43;6.22;;;;;;;;;;2046979;29;20522;-91
2023/05/31 03:10:23;;;;;;;12.48;6.65;;;;;;;;;;2047087;29;20063;-91
2023/05/31 03:11:25;;;;;;;12.05;6.45;;;;;;;;;;2039129;29;20035;-91
2023/05/31 03:12:26;;;;;;;8.48;6.45;;;;;;;;;;2046974;29;20537;-91
2023/05/31 03:13:27;;;;;;;11.35;6.82;;;;;;;;;;1699942;29;10158458;-91
2023/05/31 03:14:27;;;;;;;8.00;6.22;;;;;;;;;;2047202;29;20482;-91
2023/05/31 03:15:28;;;;;;;11.27;6.45;;;;;;;;;;2046693;29;20125;-91
2023/05/31 03:16:29;;;;;;;8.95;6.75;;;;;;;;;;2047148;29;20027;-90
2023/05/31 03:17:30;;;;;;;7.72;6.38;;;;;;;;;;2047649;28;20023;-91
2023/05/31 03:18:31;;;;;;;11.93;6.82;;;;;;;;;;2047618;28;20038;-91
2023/05/31 03:19:31;;;;;;;8.13;6.57;;;;;;;;;;2047449;29;20332;-91
2023/05/31 03:20:32;;;;;;;8.38;6.25;;;;;;;;;;2047039;29;20035;-91
2023/05/31 03:21:33;;;;;;;7.85;6.00;;;;;;;;;;2046671;29;20019;-91
2023/05/31 03:22:33;;;;;;;10.15;6.03;;;;;;;;;;2054864;28;20058;-92
2023/05/31 03:23:34;;;;;;;7.93;5.80;;;;;;;;;;2057701;28;20058;-92
2023/05/31 03:24:35;;;;;;;8.63;6.00;;;;;;;;;;2057960;28;20080;-89
2023/05/31 03:25:35;;;;;;;8.63;6.25;;;;;;;;;;2057544;28;20015;-91
2023/05/31 03:26:36;;;;;;;8.13;6.00;;;;;;;;;;2056899;28;20015;-90
2023/05/31 03:27:36;;;;;;;8.82;6.45;;;;;;;;;;2054166;28;20103;-91
2023/05/31 03:28:37;;;;;;;9.32;6.53;;;;;;;;;;2048278;29;20056;-91
2023/05/31 03:29:40;;;;;;;10.75;6.43;;;;;;;;;;2047654;29;20395;-90
2023/05/31 03:30:41;;;;;;;9.82;6.68;;;;;;;;;;2047070;29;20042;-91
2023/05/31 03:31:41;;;;;;;10.02;6.35;;;;;;;;;;2046764;29;20535;-91
2023/05/31 03:32:42;;;;;;;9.88;6.60;;;;;;;;;;2048007;29;20110;-91
2023/05/31 03:33:42;;;;;;;7.18;5.47;;;;;;;;;;2032816;29;20591;-92
2023/05/31 03:34:43;;;;;;;9.43;7.05;;;;;;;;;;2047107;29;20495;-91
2023/05/31 03:35:43;;;;;;;8.25;6.80;;;;;;;;;;2047582;29;20023;-90
2023/05/31 03:36:44;;;;;;;9.13;5.82;;;;;;;;;;2046967;29;20106;-91
2023/05/31 03:37:46;;;;;;;9.88;6.43;;;;;;;;;;2047689;29;20027;-91
2023/05/31 03:38:46;;;;;;;16.60;9.95;;;;;;;;;;2047591;29;20031;-91
2023/05/31 03:39:46;;;;;;;11.07;8.10;;;;;;;;;;2047807;29;20031;-91
2023/05/31 03:40:47;;;;;;;11.52;6.72;;;;;;;;;;2051513;29;20091;-91
2023/05/31 03:41:47;;;;;;;8.70;6.10;;;;;;;;;;2056581;28;20034;-91
2023/05/31 03:42:48;;;;;;;10.55;6.47;;;;;;;;;;2049933;28;20111;-90
2023/05/31 03:43:50;;;;;;;8.43;6.10;;;;;;;;;;2057479;28;20096;-90
2023/05/31 03:44:51;;;;;;;9.45;6.15;;;;;;;;;;2049576;28;20083;-89
2023/05/31 03:45:51;;;;;;;9.30;5.93;;;;;;;;;;2054732;29;20075;-90
2023/05/31 03:46:52;;;;;;;9.52;6.72;;;;;;;;;;2048065;28;20392;-90
2023/05/31 03:47:52;;;;;;;9.60;6.72;;;;;;;;;;2047492;29;20039;-89
2023/05/31 03:48:53;;;;;;;10.05;6.30;;;;;;;;;;2002459;29;1213986;-90
2023/05/31 03:49:53;;;;;;;9.35;6.28;;;;;;;;;;2039296;29;20058;-91
2023/05/31 03:50:54;;;;;;;7.93;5.68;;;;;;;;;;2039216;29;20063;-90
2023/05/31 03:51:54;;;;;;;10.38;6.10;;;;;;;;;;2047027;29;20027;-90
2023/05/31 03:52:55;;;;;;;7.70;5.80;;;;;;;;;;2047612;29;20034;-90
2023/05/31 03:53:55;;;;;;;8.90;6.35;;;;;;;;;;2047472;29;20104;-90
2023/05/31 03:54:56;;;;;;;10.68;6.05;;;;;;;;;;2047066;29;20126;-90
2023/05/31 03:55:56;;;;;;;10.68;6.40;;;;;;;;;;2047184;29;20019;-90
2023/05/31 03:56:57;;;;;;;9.65;6.40;;;;;;;;;;2048073;29;20030;-91
2023/05/31 03:57:57;;;;;;;11.70;6.30;;;;;;;;;;2047647;29;20527;-91
2023/05/31 03:58:57;;;;;;;8.13;6.35;;;;;;;;;;2047692;28;20190;-90
2023/05/31 03:59:59;;;;;;;7.55;6.22;;;;;;;;;;2048241;29;20150;-91
2023/05/31 04:01:00;;;;;;;10.95;6.82;;;;;;;;;;2041340;29;20107;-90
2023/05/31 04:02:00;;;;;;;7.72;6.07;;;;;;;;;;2048757;29;20031;-90
2023/05/31 04:03:01;;;;;;;10.10;6.85;;;;;;;;;;2049496;29;20042;-90
2023/05/31 04:04:01;;;;;;;9.57;6.53;;;;;;;;;;2048600;29;20027;-91
2023/05/31 04:05:04;;;;;;;8.38;6.40;;;;;;;;;;2040627;29;20027;-91
2023/05/31 04:06:04;;;;;;;13.32;7.65;;;;;;;;;;2048580;29;20059;-91
2023/05/31 04:07:05;;;;;;;10.18;7.18;;;;;;;;;;2048571;29;20081;-89
2023/05/31 04:08:05;;;;;;;10.32;6.57;;;;;;;;;;2041481;29;20032;-90
2023/05/31 04:09:06;;;;;;;8.93;6.97;;;;;;;;;;2041088;29;20024;-91
2023/05/31 04:10:07;;;;;;;9.75;6.85;;;;;;;;;;2041038;29;20103;-91
2023/05/31 04:11:07;;;;;;;10.75;7.22;;;;;;;;;;2048728;29;20105;-91
2023/05/31 04:12:08;;;;;;;11.07;7.43;;;;;;;;;;2048903;29;20464;-91
2023/05/31 04:13:09;;;;;;;8.95;6.70;;;;;;;;;;2048965;29;20508;-90
2023/05/31 04:14:10;;;;;;;8.63;6.43;;;;;;;;;;2049423;28;20030;-92
2023/05/31 04:15:10;;;;;;;9.50;6.82;;;;;;;;;;2049427;29;20038;-91
2023/05/31 04:16:11;;;;;;;9.48;6.53;;;;;;;;;;2049196;29;20415;-91
2023/05/31 04:17:11;;;;;;;9.43;6.55;;;;;;;;;;2049505;29;20566;-92
2023/05/31 04:18:12;;;;;;;9.82;6.13;;;;;;;;;;2048396;29;20031;-91
2023/05/31 04:19:13;;;;;;;10.15;6.43;;;;;;;;;;2048644;29;20027;-91
2023/05/31 04:20:13;;;;;;;11.48;7.18;;;;;;;;;;2049163;28;20049;-92
2023/05/31 04:21:14;;;;;;;10.02;6.50;;;;;;;;;;2048808;29;20503;-90
2023/05/31 04:22:18;;;;;;;10.23;6.95;;;;;;;;;;2040530;29;20111;-91
2023/05/31 04:23:18;;;;;;;8.38;6.40;;;;;;;;;;2040845;29;20024;-90
2023/05/31 04:24:18;;;;;;;10.43;6.22;;;;;;;;;;2048744;29;20082;-90
2023/05/31 04:25:19;;;;;;;10.52;7.00;;;;;;;;;;2049574;29;20530;-90
2023/05/31 04:26:20;;;;;;;8.88;6.32;;;;;;;;;;2053576;29;20118;-88
2023/05/31 04:27:21;;;;;;;7.53;5.50;;;;;;;;;;2050820;29;20109;-90
2023/05/31 04:28:21;;;;;;;9.27;6.30;;;;;;;;;;2048880;29;20035;-90
2023/05/31 04:29:22;;;;;;;10.80;6.60;;;;;;;;;;1700639;29;10182426;-93
2023/05/31 04:30:23;;;;;;;8.50;6.03;;;;;;;;;;2049005;29;20106;-90
2023/05/31 04:31:24;;;;;;;8.95;5.63;;;;;;;;;;2048863;28;20113;-90
2023/05/31 04:32:28;;;;;;;8.57;6.03;;;;;;;;;;2048116;29;20023;-90
2023/05/31 04:33:29;;;;;;;7.22;5.65;;;;;;;;;;2048855;29;20023;-90
2023/05/31 04:34:30;;;;;;;9.15;6.28;;;;;;;;;;2048869;29;20022;-91
2023/05/31 04:35:33;;;;;;;7.80;5.80;;;;;;;;;;2048761;29;20020;-90
2023/05/31 04:36:35;;;;;;;8.23;5.93;;;;;;;;;;2049406;29;20098;-90
2023/05/31 04:37:35;;;;;;;8.52;5.28;;;;;;;;;;2048576;29;20082;-90
2023/05/31 04:38:36;;;;;;;14.27;5.78;;;;;;;;;;2048588;29;20177;-90
2023/05/31 04:39:37;;;;;;;8.13;5.67;;;;;;;;;;1694774;28;10000274;-90
2023/05/31 04:40:38;;;;;;;8.57;5.40;;;;;;;;;;2048676;29;20274;-91
2023/05/31 04:41:43;;;;;;;8.30;5.03;;;;;;;;;;2049284;29;20117;-91
2023/05/31 04:42:43;;;;;;;7.97;5.20;;;;;;;;;;2049273;29;20669;-90
2023/05/31 04:43:47;;;;;;;8.65;5.05;;;;;;;;;;2048981;29;20019;-91
2023/05/31 04:44:49;;;;;;;7.43;4.80;;;;;;;;;;2049196;28;20046;-90
2023/05/31 04:45:49;;;;;;;7.35;5.35;;;;;;;;;;2049594;29;20150;-91
2023/05/31 04:46:49;;;;;;;7.57;5.07;;;;;;;;;;2051149;29;20019;-94
2023/05/31 04:47:50;;;;;;;9.40;5.10;;;;;;;;;;2051318;29;20137;-92
2023/05/31 04:48:55;;;;;;;5.85;4.45;;;;;;;;;;2044500;29;20031;-90
2023/05/31 04:49:59;;;;;;;6.13;4.65;;;;;;;;;;2053362;29;20031;-90
2023/05/31 04:51:00;;;;;;;8.20;4.93;;;;;;;;;;2052569;29;20027;-89
2023/05/31 04:52:01;;;;;;;7.75;4.65;;;;;;;;;;2049806;29;20050;-90
2023/05/31 04:53:02;;;;;;;6.18;5.07;;;;;;;;;;2041590;29;20031;-90
2023/05/31 04:54:03;;;;;;;8.18;4.72;;;;;;;;;;2049358;29;20031;-90
2023/05/31 04:55:05;;;;;;;6.93;4.85;;;;;;;;;;2049993;28;20902;-89
2023/05/31 04:56:07;;;;;;;5.93;4.13;;;;;;;;;;2049154;29;20027;-90
2023/05/31 04:57:08;;;;;;;6.75;4.63;;;;;;;;;;2041685;29;20032;-91
2023/05/31 04:58:09;;;;;;;7.60;5.18;;;;;;;;;;2049343;29;20027;-91
2023/05/31 04:59:10;;;;;;;8.60;5.10;;;;;;;;;;1697828;29;10266100;-92
2023/05/31 05:00:16;;;;;;;4.95;4.45;;;;;;;;;;2048937;29;20414;-89
2023/05/31 05:03:13;;;;;;;7.47;4.88;;;;;;;;;;2049503;29;20031;-90
2023/05/31 05:04:13;;;;;;;6.40;4.97;;;;;;;;;;2048759;29;20031;-90
2023/05/31 05:05:15;;;;;;;8.23;4.45;;;;;;;;;;2048917;29;20082;-90
2023/05/31 05:06:17;;;;;;;7.97;4.60;;;;;;;;;;2048604;29;20035;-90
2023/05/31 05:07:18;;;;;;;6.95;4.57;;;;;;;;;;2040897;29;20115;-90
2023/05/31 05:08:21;;;;;;;6.55;4.32;;;;;;;;;;2048358;29;20027;-89
2023/05/31 05:09:21;;;;;;;5.82;4.45;;;;;;;;;;2048385;29;20042;-90
2023/05/31 05:10:22;;;;;;;7.55;4.38;;;;;;;;;;2047941;28;20043;-88
2023/05/31 05:11:22;;;;;;;6.03;4.63;;;;;;;;;;2048998;29;20035;-90
2023/05/31 05:12:22;;;;;;;8.82;5.20;;;;;;;;;;2048976;29;20031;-90
2023/05/31 05:13:23;;;;;;;5.38;4.85;;;;;;;;;;2049013;29;20154;-90
2023/05/31 05:14:23;;;;;;;7.97;4.63;;;;;;;;;;2041033;29;20027;-91
2023/05/31 05:15:24;;;;;;;6.18;4.78;;;;;;;;;;2048787;29;20038;-90
2023/05/31 05:16:25;;;;;;;6.32;4.50;;;;;;;;;;2048875;29;20027;-90
2023/05/31 05:17:28;;;;;;;8.68;4.90;;;;;;;;;;2051829;29;20031;-89
2023/05/31 05:18:29;;;;;;;6.20;4.45;;;;;;;;;;2042825;29;20032;-91
2023/05/31 05:19:30;;;;;;;8.23;4.50;;;;;;;;;;2048867;29;20039;-91
2023/05/31 05:20:40;;;;;;;6.60;4.93;;;;;;;;;;2049670;29;20472;-91
2023/05/31 05:21:41;;;;;;;5.97;4.30;;;;;;;;;;2048991;29;20023;-90
2023/05/31 05:22:42;;;;;;;4.88;3.65;;;;;;;;;;2049089;29;20062;-92
2023/05/31 05:23:44;;;;;;;4.80;4.00;;;;;;;;;;2048831;29;20412;-91
2023/05/31 05:24:44;;;;;;;4.78;4.28;;;;;;;;;;2049109;29;20404;-92
2023/05/31 05:25:45;;;;;;;6.53;3.67;;;;;;;;;;2049088;29;20034;-91
2023/05/31 05:26:46;;;;;;;6.80;4.28;;;;;;;;;;2040964;29;20159;-90
2023/05/31 05:27:50;;;;;;;6.97;5.18;;;;;;;;;;2048822;29;20031;-90
2023/05/31 05:28:51;;;;;;;5.00;4.25;;;;;;;;;;2049701;29;20456;-92
2023/05/31 05:29:51;;;;;;;7.47;4.70;;;;;;;;;;2049291;29;20146;-93
2023/05/31 05:30:53;;;;;;;6.72;4.85;;;;;;;;;;2048873;29;20055;-92
2023/05/31 05:31:53;;;;;;;8.80;4.70;;;;;;;;;;2048794;29;20158;-91
2023/05/31 05:32:54;;;;;;;4.30;3.90;;;;;;;;;;2040932;29;20040;-92
2023/05/31 05:33:54;;;;;;;8.55;4.45;;;;;;;;;;2041187;29;20038;-91
2023/05/31 05:34:56;;;;;;;7.97;4.13;;;;;;;;;;2049025;29;20075;-90
2023/05/31 05:35:56;;;;;;;5.30;3.72;;;;;;;;;;2049874;29;20063;-89
2023/05/31 05:36:57;;;;;;;6.05;4.60;;;;;;;;;;2050661;29;20412;-91
2023/05/31 05:37:59;;;;;;;6.05;4.03;;;;;;;;;;2050590;29;20533;-91
2023/05/31 05:39:06;;;;;;;6.78;4.22;;;;;;;;;;2049184;29;20122;-91
2023/05/31 05:40:23;;;;;;;5.80;3.80;;;;;;;;;;2048614;29;20027;-92
2023/05/31 05:41:25;;;;;;;4.80;4.07;;;;;;;;;;2049369;28;20423;-91
2023/05/31 05:42:37;;;;;;;7.39;4.06;;;;;;;;;;2000254;28;10265743;-92
2023/05/31 05:43:40;;;;;;;4.80;3.90;;;;;;;;;;2049435;28;20244;-92
2023/05/31 05:44:43;;;;;;;3.92;3.55;;;;;;;;;;2049046;29;20110;-92
2023/05/31 05:45:44;;;;;;;4.00;3.47;;;;;;;;;;2048879;29;20023;-93
2023/05/31 05:46:44;;;;;;;5.70;3.95;;;;;;;;;;2040610;29;20431;-90
2023/05/31 05:47:45;;;;;;;4.97;3.58;;;;;;;;;;2048325;29;20027;-91
2023/05/31 05:48:45;;;;;;;4.13;3.13;;;;;;;;;;2048912;29;20145;-91
2023/05/31 05:49:48;;;;;;;6.82;3.55;;;;;;;;;;2049371;29;20557;-92
2023/05/31 05:50:48;;;;;;;5.03;3.35;;;;;;;;;;2050450;29;20023;-92
2023/05/31 05:51:49;;;;;;;4.68;3.60;;;;;;;;;;2046145;29;20023;-91
2023/05/31 05:52:50;;;;;;;4.45;3.40;;;;;;;;;;2058745;28;20016;-91
2023/05/31 05:53:50;;;;;;;4.10;3.53;;;;;;;;;;2057308;28;20071;-91
2023/05/31 05:54:51;;;;;;;4.47;3.35;;;;;;;;;;2054492;29;20043;-91
2023/05/31 05:55:52;;;;;;;4.60;3.75;;;;;;;;;;2053693;29;20054;-92
2023/05/31 05:56:52;;;;;;;4.05;3.25;;;;;;;;;;2048202;29;20026;-92
2023/05/31 05:57:53;;;;;;;5.18;3.28;;;;;;;;;;2048350;29;20475;-92
2023/05/31 05:58:53;;;;;;;5.15;3.40;;;;;;;;;;2048722;28;20028;-93
2023/05/31 05:59:54;;;;;;;6.25;3.75;;;;;;;;;;2047972;29;20032;-91
2023/05/31 06:00:57;;;;;;;4.78;3.75;;;;;;;;;;2047922;29;20355;-90
2023/05/31 06:02:00;;;;;;;8.00;3.33;;;;;;;;;;2047872;29;20031;-93
2023/05/31 06:03:00;;;;;;;7.90;3.88;;;;;;;;;;2040483;29;20039;-93
2023/05/31 06:06:20;;;;;;;;;;;;;;;;;;;;;
2023/05/31 06:08:02;;;;;;;7.13;3.33;;;;;;;;;;1699917;28;10256464;-92
2023/05/31 06:09:00;;;;;;;4.13;3.30;;;;;;;;;;2050007;28;20035;-92
2023/05/31 06:10:03;;;;;;;4.75;3.20;;;;;;;;;;2058187;28;20030;-90
2023/05/31 06:11:03;;;;;;;4.72;3.22;;;;;;;;;;2057796;28;20071;-92
2023/05/31 06:12:04;;;;;;;4.88;3.40;;;;;;;;;;2058684;28;20055;-89